createdAt,value
2019-04-30T00:04:40.103Z,3.93
2019-04-30T00:09:40.191Z,4.20
2019-04-30T00:14:42.257Z,4.37
2019-04-30T00:19:50.486Z,3.90
2019-04-30T00:24:50.786Z,3.60
2019-04-30T00:29:52.835Z,4.17
2019-04-30T00:34:55.645Z,3.50
2019-04-30T00:39:58.901Z,3.87
2019-04-30T00:45:06.670Z,3.77
2019-04-30T00:50:05.763Z,4.20
2019-04-30T00:55:09.125Z,4.10
2019-04-30T01:00:12.181Z,4.23
2019-04-30T01:05:16.953Z,3.87
2019-04-30T01:10:19.608Z,4.17
2019-04-30T01:15:22.980Z,3.53
2019-04-30T01:20:31.374Z,3.83
2019-04-30T01:25:30.654Z,3.73
2019-04-30T01:30:32.939Z,4.20
2019-04-30T01:35:34.963Z,4.57
2019-04-30T01:40:42.886Z,4.20
2019-04-30T01:45:45.280Z,3.87
2019-04-30T01:50:48.848Z,4.30
2019-04-30T01:55:56.500Z,4.10
2019-04-30T02:01:01.842Z,4.20
2019-04-30T02:06:03.974Z,3.87
2019-04-30T02:11:06.066Z,3.83
2019-04-30T02:16:08.666Z,3.57
2019-04-30T02:21:11.414Z,3.90
2019-04-30T02:26:13.731Z,3.90
2019-04-30T02:31:22.298Z,3.50
2019-04-30T02:36:43.638Z,4.17
2019-04-30T02:41:46.325Z,3.43
2019-04-30T02:46:50.527Z,3.60
2019-04-30T02:51:53.979Z,3.47
2019-04-30T02:57:05.847Z,3.87
2019-04-30T03:02:11.519Z,3.20
2019-04-30T03:07:11.862Z,3.40
2019-04-30T03:12:13.926Z,3.40
2019-04-30T03:17:51.139Z,3.63
2019-04-30T03:22:53.183Z,2.93
2019-04-30T03:27:55.248Z,3.70
2019-04-30T03:32:58.355Z,3.23
2019-04-30T03:38:01.857Z,3.53
2019-04-30T03:43:04.039Z,3.40
2019-04-30T03:48:06.119Z,3.90
2019-04-30T03:53:10.401Z,3.37
2019-04-30T03:58:12.221Z,3.17
2019-04-30T04:03:14.292Z,3.47
2019-04-30T04:08:29.201Z,3.10
2019-04-30T04:13:33.115Z,3.47
2019-04-30T04:18:34.927Z,3.57
2019-04-30T04:23:39.831Z,3.27
2019-04-30T04:28:43.555Z,3.87
2019-04-30T04:33:45.048Z,3.13
2019-04-30T04:38:50.409Z,3.30
2019-04-30T04:43:51.079Z,3.27
2019-04-30T04:48:53.328Z,3.30
2019-04-30T04:53:55.408Z,3.53
2019-04-30T04:58:59.990Z,3.77
2019-04-30T05:04:01.625Z,3.50
2019-04-30T05:09:05.176Z,3.53
2019-04-30T05:14:08.361Z,3.77
2019-04-30T05:19:11.298Z,3.10
2019-04-30T05:24:13.348Z,2.57
2019-04-30T05:29:15.519Z,3.73
2019-04-30T05:34:18.872Z,2.63
2019-04-30T05:39:21.071Z,2.93
2019-04-30T05:44:23.168Z,3.03
2019-04-30T05:49:25.381Z,3.10
2019-04-30T05:54:29.219Z,2.93
2019-04-30T05:59:31.522Z,2.93
2019-04-30T06:04:33.778Z,2.60
2019-04-30T06:09:50.866Z,2.75
2019-04-30T06:15:08.977Z,3.00
2019-04-30T06:20:18.421Z,2.80
2019-04-30T06:25:27.057Z,2.95
2019-04-30T06:30:19.902Z,2.87
2019-04-30T06:35:22.403Z,3.22
2019-04-30T06:40:24.501Z,3.08
2019-04-30T06:45:28.980Z,2.60
2019-04-30T06:50:31.285Z,3.10
2019-04-30T06:55:33.403Z,3.00
2019-04-30T07:00:36.643Z,3.27
2019-04-30T07:05:39.179Z,2.90
2019-04-30T07:10:53.038Z,3.27
2019-04-30T07:15:45.448Z,3.20
2019-04-30T07:20:48.665Z,2.65
2019-04-30T07:25:51.710Z,3.37
2019-04-30T07:31:07.587Z,3.70
2019-04-30T07:36:01.521Z,3.43
2019-04-30T07:41:02.074Z,3.57
2019-04-30T07:46:04.130Z,3.60
2019-04-30T07:51:06.487Z,3.07
2019-04-30T07:56:24.370Z,3.37
2019-04-30T08:01:15.760Z,3.50
2019-04-30T08:06:21.849Z,3.37
2019-04-30T08:11:26.227Z,3.60
2019-04-30T08:16:28.707Z,4.00
2019-04-30T08:21:30.740Z,4.07
2019-04-30T08:26:32.835Z,3.67
2019-04-30T08:31:34.919Z,4.00
2019-04-30T08:36:38.673Z,3.67
2019-04-30T08:41:40.938Z,4.00
2019-04-30T08:46:43.030Z,3.70
2019-04-30T08:51:45.130Z,3.27
2019-04-30T08:56:47.220Z,4.10
2019-04-30T09:01:49.327Z,4.57
2019-04-30T09:06:51.399Z,3.43
2019-04-30T09:11:55.763Z,3.90
2019-04-30T09:16:59.408Z,3.60
2019-04-30T09:22:01.433Z,4.50
2019-04-30T09:27:03.471Z,3.47
2019-04-30T09:32:05.529Z,3.57
2019-04-30T09:37:08.726Z,4.73
2019-04-30T09:42:10.954Z,3.83
2019-04-30T09:47:13.295Z,3.77
2019-04-30T09:52:15.486Z,3.40
2019-04-30T09:57:19.322Z,3.23
2019-04-30T10:02:21.512Z,3.50
2019-04-30T10:07:23.874Z,2.83
2019-04-30T10:12:26.247Z,3.30
2019-04-30T10:17:35.833Z,3.37
2019-04-30T10:22:39.886Z,3.70
2019-04-30T10:27:41.856Z,3.43
2019-04-30T10:32:43.894Z,2.80
2019-04-30T10:37:46.110Z,2.80
2019-04-30T10:42:48.889Z,2.73
2019-04-30T10:47:51.078Z,2.80
2019-04-30T10:52:53.174Z,3.40
2019-04-30T10:57:55.220Z,2.33
2019-04-30T11:02:59.238Z,2.97
2019-04-30T11:08:01.217Z,2.40
2019-04-30T11:13:03.662Z,2.33
2019-04-30T11:18:06.103Z,2.40
2019-04-30T11:23:14.478Z,2.53
2019-04-30T11:28:13.080Z,2.10
2019-04-30T11:33:15.756Z,2.57
2019-04-30T11:38:20.322Z,2.30
2019-04-30T11:43:22.200Z,2.30
2019-04-30T11:48:24.283Z,2.23
2019-04-30T11:53:28.811Z,2.30
2019-04-30T11:58:30.641Z,2.80
2019-04-30T12:03:32.979Z,2.77
2019-04-30T12:08:36.933Z,2.53
2019-04-30T12:13:39.016Z,2.20
2019-04-30T12:18:41.089Z,2.97
2019-04-30T12:23:43.188Z,2.30
2019-04-30T12:28:45.287Z,2.67
2019-04-30T12:33:47.309Z,4.00
2019-04-30T12:38:49.357Z,2.60
2019-04-30T12:43:51.588Z,2.40
2019-04-30T12:49:10.376Z,2.50
2019-04-30T12:54:38.213Z,2.07
2019-04-30T12:59:40.603Z,2.37
2019-04-30T13:04:42.744Z,2.73
2019-04-30T13:09:45.219Z,2.53
2019-04-30T13:14:53.915Z,2.23
2019-04-30T13:19:51.701Z,6.73
2019-04-30T13:24:53.830Z,2.60
2019-04-30T13:30:13.027Z,6.27
2019-04-30T13:35:15.250Z,2.83
2019-04-30T13:40:36.739Z,2.70
2019-04-30T13:45:38.909Z,5.77
2019-04-30T13:50:41.000Z,2.00
2019-04-30T13:55:45.879Z,2.70
2019-04-30T14:00:47.014Z,2.00
2019-04-30T14:05:51.510Z,2.57
2019-04-30T14:10:53.377Z,2.07
2019-04-30T14:15:55.505Z,2.20
2019-04-30T14:21:00.836Z,2.13
2019-04-30T14:26:01.723Z,2.10
2019-04-30T14:31:04.234Z,4.27
2019-04-30T14:36:06.350Z,2.50
2019-04-30T14:41:08.833Z,2.47
2019-04-30T14:46:31.499Z,2.20
2019-04-30T14:51:34.587Z,2.03
2019-04-30T14:56:45.507Z,1.90
2019-04-30T15:02:08.911Z,2.80
2019-04-30T15:07:11.170Z,2.50
2019-04-30T15:12:13.296Z,2.37
2019-04-30T15:17:15.384Z,2.30
2019-04-30T15:22:18.993Z,2.03
2019-04-30T15:27:21.246Z,2.07
2019-04-30T15:32:23.340Z,2.30
2019-04-30T15:37:25.388Z,2.80
2019-04-30T15:42:27.525Z,3.87
2019-04-30T15:47:29.611Z,2.57
2019-04-30T15:52:31.801Z,2.50
2019-04-30T15:57:35.836Z,2.43
2019-04-30T16:02:57.427Z,3.37
2019-04-30T16:08:09.259Z,2.70
2019-04-30T16:13:15.770Z,2.83
2019-04-30T16:18:19.590Z,2.43
2019-04-30T16:23:21.868Z,2.30
2019-04-30T16:28:23.917Z,2.67
2019-04-30T16:33:25.985Z,3.83
2019-04-30T16:38:28.940Z,3.80
2019-04-30T16:43:31.516Z,3.20
2019-04-30T16:48:33.583Z,3.60
2019-04-30T16:53:35.704Z,2.87
2019-04-30T16:58:55.803Z,3.07
2019-04-30T17:04:16.450Z,2.87
2019-04-30T17:09:32.797Z,2.70
2019-04-30T17:14:35.893Z,2.70
2019-04-30T17:19:39.338Z,3.00
2019-04-30T17:24:41.591Z,1.87
2019-04-30T17:29:43.628Z,2.03
2019-04-30T17:34:45.734Z,2.30
2019-04-30T17:39:49.170Z,2.70
2019-04-30T17:44:58.479Z,2.50
2019-04-30T17:49:56.056Z,2.50
2019-04-30T17:54:59.503Z,2.17
2019-04-30T18:00:15.890Z,2.17
2019-04-30T18:05:06.785Z,2.50
2019-04-30T18:10:11.040Z,2.70
2019-04-30T18:15:17.254Z,3.47
2019-04-30T18:20:33.497Z,2.67
2019-04-30T18:25:42.714Z,2.90
2019-04-30T18:30:44.875Z,3.10
2019-04-30T18:35:48.671Z,3.60
2019-04-30T18:40:50.868Z,4.00
2019-04-30T18:45:52.932Z,4.83
2019-04-30T18:50:55.061Z,4.70
2019-04-30T18:55:59.196Z,4.80
2019-04-30T19:01:01.467Z,5.60
2019-04-30T19:06:22.290Z,6.73
2019-04-30T19:11:30.304Z,7.67
2019-04-30T19:17:04.011Z,8.03
2019-04-30T19:22:06.403Z,8.47
2019-04-30T19:27:08.714Z,8.70
2019-04-30T19:32:10.823Z,8.83
2019-04-30T19:37:13.041Z,10.00
2019-04-30T19:42:15.086Z,9.63
2019-04-30T19:47:18.984Z,10.97
2019-04-30T19:52:21.305Z,10.50
2019-04-30T19:57:23.657Z,12.63
2019-04-30T20:02:25.730Z,12.30
2019-04-30T20:07:29.115Z,13.30
2019-04-30T20:12:31.307Z,14.93
2019-04-30T20:17:35.544Z,15.10
2019-04-30T20:22:38.940Z,15.73
2019-04-30T20:27:41.360Z,15.90
2019-04-30T20:32:43.457Z,15.47
2019-04-30T20:38:04.080Z,16.53
2019-04-30T20:43:06.147Z,16.10
2019-04-30T20:48:08.994Z,16.57
2019-04-30T20:53:11.167Z,15.20
2019-04-30T20:58:13.332Z,17.57
2019-04-30T21:03:15.417Z,17.07
2019-04-30T21:08:17.496Z,15.43
2019-04-30T21:13:19.588Z,14.17
2019-04-30T21:18:21.846Z,13.17
2019-04-30T21:23:23.943Z,13.03
2019-04-30T21:28:26.104Z,13.70
2019-04-30T21:33:35.285Z,12.77
2019-04-30T21:38:38.928Z,12.00
2019-04-30T21:43:42.431Z,12.20
2019-04-30T21:48:44.495Z,12.33
2019-04-30T21:53:46.602Z,12.37
2019-04-30T21:58:48.763Z,12.07
2019-04-30T22:03:50.945Z,13.20
2019-04-30T22:08:53.023Z,12.83
2019-04-30T22:13:55.097Z,14.00
2019-04-30T22:18:57.216Z,16.70
2019-04-30T22:23:59.300Z,15.50
2019-04-30T22:29:01.384Z,17.77
2019-04-30T22:34:03.738Z,17.10
2019-04-30T22:39:29.939Z,17.73
2019-04-30T22:44:32.401Z,18.77
2019-04-30T22:49:34.458Z,17.20
2019-04-30T22:54:36.622Z,16.03
2019-04-30T22:59:49.529Z,16.33
2019-04-30T23:04:44.546Z,17.53
2019-04-30T23:09:46.595Z,17.13
2019-04-30T23:14:48.683Z,17.83
2019-04-30T23:19:50.775Z,17.97
2019-04-30T23:24:52.815Z,17.93
2019-04-30T23:30:03.164Z,18.73
2019-04-30T23:35:00.390Z,20.13
2019-04-30T23:40:23.014Z,19.33
2019-04-30T23:45:25.357Z,20.53
2019-04-30T23:50:27.426Z,24.13
2019-04-30T23:55:29.505Z,25.07
